Time;durP1;ratioP1;P1;durP2;ratioP2;P2;SDS_P1;SDS_P2;PMS_P1;PMS_P2;Temp;Humidity;BMP_temperature;BMP_pressure;BME280_temperature;BME280_humidity;BME280_pressure;Samples;Min_cycle;Max_cycle;Signal;HPM_P1;HPM_P2
2023/07/23 00:00:30;;;;;;;8.77;4.93;;;19.80;99.90;;;;;;5091362;28;20190;-47
2023/07/23 00:02:55;;;;;;;8.20;4.20;;;19.70;99.90;;;;;;5090863;28;20219;-46
2023/07/23 00:05:25;;;;;;;6.45;3.95;;;19.70;99.90;;;;;;5091514;28;20753;-47
2023/07/23 00:07:53;;;;;;;6.05;4.50;;;19.60;99.90;;;;;;5091427;28;20157;-46
2023/07/23 00:10:19;;;;;;;7.57;4.20;;;19.60;99.90;;;;;;5091377;28;20629;-47
2023/07/23 00:12:45;;;;;;;6.72;3.92;;;19.60;99.90;;;;;;5091146;28;20220;-47
2023/07/23 00:15:12;;;;;;;8.02;4.50;;;19.60;99.90;;;;;;5091315;28;20197;-47
2023/07/23 00:17:39;;;;;;;6.28;4.25;;;19.60;99.90;;;;;;5091740;28;20254;-47
2023/07/23 00:20:05;;;;;;;6.95;5.10;;;19.60;99.90;;;;;;5087005;28;20216;-47
2023/07/23 00:22:31;;;;;;;6.57;4.50;;;19.60;99.90;;;;;;5071525;28;20166;-46
2023/07/23 00:24:57;;;;;;;7.35;4.65;;;19.50;99.90;;;;;;5071089;28;20503;-46
2023/07/23 00:27:25;;;;;;;5.50;4.50;;;19.50;99.90;;;;;;5070925;28;20538;-47
2023/07/23 00:29:51;;;;;;;6.93;4.15;;;19.50;99.90;;;;;;5070520;28;20645;-46
2023/07/23 00:32:16;;;;;;;10.88;4.65;;;19.50;99.90;;;;;;5071100;28;20201;-46
2023/07/23 00:34:42;;;;;;;5.47;4.53;;;19.50;99.90;;;;;;5070896;28;20205;-47
2023/07/23 00:37:08;;;;;;;9.20;4.22;;;19.40;99.90;;;;;;5071004;28;20178;-47
2023/07/23 00:39:34;;;;;;;7.32;4.50;;;19.40;99.90;;;;;;5070810;28;20595;-46
2023/07/23 00:41:59;;;;;;;5.03;4.40;;;19.40;99.90;;;;;;5071339;28;20173;-47
2023/07/23 00:44:25;;;;;;;5.72;4.30;;;19.50;99.90;;;;;;5070844;28;20253;-47
2023/07/23 00:46:51;;;;;;;5.82;4.07;;;19.50;99.90;;;;;;5070615;28;20202;-47
2023/07/23 00:49:17;;;;;;;7.03;4.43;;;19.50;99.90;;;;;;5070628;28;20177;-47
2023/07/23 00:51:43;;;;;;;8.43;4.68;;;19.50;99.90;;;;;;5091084;28;20169;-47
2023/07/23 00:54:09;;;;;;;6.75;4.47;;;19.40;99.90;;;;;;5091047;28;20166;-47
2023/07/23 00:56:36;;;;;;;5.35;3.90;;;19.40;99.90;;;;;;5090823;28;20261;-48
2023/07/23 00:59:01;;;;;;;6.63;4.40;;;19.50;99.90;;;;;;5091216;28;20732;-47
2023/07/23 01:01:30;;;;;;;8.52;4.90;;;19.50;99.90;;;;;;5092289;28;20201;-46
2023/07/23 01:03:55;;;;;;;10.77;4.60;;;19.40;99.90;;;;;;5094890;28;20215;-47
2023/07/23 01:06:22;;;;;;;6.30;4.60;;;19.40;99.90;;;;;;5094552;28;20165;-46
2023/07/23 01:08:48;;;;;;;4.95;4.22;;;19.40;99.90;;;;;;5094611;28;20173;-47
2023/07/23 01:11:14;;;;;;;9.13;4.93;;;19.40;99.90;;;;;;5075555;28;20213;-46
2023/07/23 01:13:40;;;;;;;6.20;4.22;;;19.40;99.90;;;;;;5073979;28;20249;-47
2023/07/23 01:16:07;;;;;;;5.40;4.25;;;19.40;99.90;;;;;;5074094;28;20205;-47
2023/07/23 01:18:37;;;;;;;8.43;4.05;;;19.40;99.90;;;;;;5074018;28;20174;-47
2023/07/23 01:21:03;;;;;;;7.18;4.00;;;19.40;99.90;;;;;;5074025;28;20181;-47
2023/07/23 01:23:30;;;;;;;5.22;4.28;;;19.50;99.90;;;;;;5074409;28;20518;-48
2023/07/23 01:25:57;;;;;;;6.38;4.65;;;19.40;99.90;;;;;;5074504;28;20178;-47
2023/07/23 01:28:22;;;;;;;9.48;4.63;;;19.40;99.90;;;;;;5073815;28;20170;-46
2023/07/23 01:30:48;;;;;;;5.28;3.80;;;19.40;99.90;;;;;;5072128;28;20518;-46
2023/07/23 01:33:15;;;;;;;4.57;3.80;;;19.40;99.90;;;;;;5094055;28;20168;-47
2023/07/23 01:35:41;;;;;;;9.05;4.40;;;19.40;99.90;;;;;;5093892;28;20197;-47
2023/07/23 01:38:07;;;;;;;6.00;3.88;;;19.40;99.90;;;;;;5093996;28;20165;-46
2023/07/23 01:40:32;;;;;;;9.50;3.85;;;19.40;99.90;;;;;;5093937;28;20165;-48
2023/07/23 01:42:58;;;;;;;5.38;4.28;;;19.30;99.90;;;;;;5094360;28;20289;-47
2023/07/23 01:45:28;;;;;;;4.95;3.63;;;19.40;99.90;;;;;;5093744;28;20517;-46
2023/07/23 01:47:54;;;;;;;4.53;3.90;;;19.40;99.90;;;;;;5094036;28;20188;-47
2023/07/23 01:50:19;;;;;;;7.18;4.18;;;19.40;99.90;;;;;;5078337;28;20637;-46
2023/07/23 01:52:45;;;;;;;4.88;3.90;;;19.40;99.90;;;;;;5073470;28;20620;-47
2023/07/23 01:55:10;;;;;;;6.80;3.78;;;19.30;99.90;;;;;;5073334;28;20213;-46
2023/07/23 01:57:36;;;;;;;6.15;4.20;;;19.30;99.90;;;;;;5074531;28;20174;-46
2023/07/23 02:00:03;;;;;;;5.20;4.22;;;19.30;99.90;;;;;;5073314;28;20166;-46
2023/07/23 02:02:29;;;;;;;6.85;4.55;;;19.40;99.90;;;;;;5073608;28;20170;-46
2023/07/23 02:04:55;;;;;;;7.88;4.07;;;19.30;99.90;;;;;;5073219;28;20174;-47
2023/07/23 02:07:20;;;;;;;6.53;4.00;;;19.30;99.90;;;;;;5055182;28;20265;-46
2023/07/23 02:09:49;;;;;;;7.50;4.10;;;19.30;99.90;;;;;;5085373;28;20220;-46
2023/07/23 02:12:14;;;;;;;6.53;4.40;;;19.40;99.90;;;;;;5092947;28;20634;-46
2023/07/23 02:14:40;;;;;;;5.63;4.65;;;19.40;99.90;;;;;;5092455;28;20215;-47
2023/07/23 02:17:06;;;;;;;5.50;4.05;;;19.40;99.90;;;;;;5092915;28;20656;-47
2023/07/23 02:19:32;;;;;;;8.43;4.78;;;19.40;99.90;;;;;;5093177;28;20211;-47
2023/07/23 02:21:57;;;;;;;6.00;3.85;;;19.40;99.90;;;;;;5093596;28;20562;-46
2023/07/23 02:24:23;;;;;;;8.52;4.60;;;19.40;99.90;;;;;;5092967;28;20171;-47
2023/07/23 02:26:48;;;;;;;8.40;4.65;;;19.40;99.90;;;;;;5092981;28;20534;-46
2023/07/23 02:29:14;;;;;;;8.07;4.32;;;19.40;99.90;;;;;;5082402;28;20166;-46
2023/07/23 02:31:41;;;;;;;5.68;4.50;;;19.40;99.90;;;;;;5072674;28;20629;-46
2023/07/23 02:34:07;;;;;;;6.93;5.00;;;19.40;99.90;;;;;;5072661;28;20174;-46
2023/07/23 02:36:33;;;;;;;10.05;6.93;;;19.50;99.90;;;;;;5072408;28;20293;-47
2023/07/23 02:38:59;;;;;;;10.65;6.63;;;19.50;99.90;;;;;;5072977;28;20166;-47
2023/07/23 02:41:24;;;;;;;5.70;3.97;;;19.50;99.90;;;;;;5072562;28;20174;-46
2023/07/23 02:43:50;;;;;;;8.00;5.68;;;19.50;99.90;;;;;;5072447;28;20170;-47
2023/07/23 02:46:15;;;;;;;7.55;4.38;;;19.50;99.90;;;;;;5072394;28;20166;-46
2023/07/23 02:48:41;;;;;;;6.38;4.50;;;19.50;99.90;;;;;;5072302;28;20161;-47
2023/07/23 02:51:06;;;;;;;8.60;4.75;;;19.50;99.90;;;;;;5072236;28;20245;-47
2023/07/23 02:53:32;;;;;;;6.45;4.68;;;19.50;99.90;;;;;;5072323;28;20384;-47
2023/07/23 02:55:57;;;;;;;6.10;3.90;;;19.50;99.90;;;;;;5072495;28;20256;-47
2023/07/23 02:58:24;;;;;;;5.78;4.15;;;19.60;99.90;;;;;;5075178;28;20188;-48
2023/07/23 03:00:49;;;;;;;5.05;4.30;;;19.50;99.90;;;;;;5085422;28;20591;-47
2023/07/23 03:03:15;;;;;;;14.48;7.55;;;19.60;99.90;;;;;;5072120;28;20158;-46
2023/07/23 03:05:45;;;;;;;6.68;4.20;;;19.50;99.90;;;;;;5072266;28;20217;-47
2023/07/23 03:08:10;;;;;;;5.95;4.10;;;19.50;99.90;;;;;;5071949;28;20183;-47
2023/07/23 03:10:36;;;;;;;4.95;4.32;;;19.50;99.90;;;;;;5054015;28;20178;-47
2023/07/23 03:13:02;;;;;;;5.00;3.83;;;19.60;99.90;;;;;;5071691;28;20221;-47
2023/07/23 03:15:27;;;;;;;4.63;4.20;;;19.40;99.90;;;;;;5072062;28;20237;-47
2023/07/23 03:17:53;;;;;;;4.88;3.85;;;19.40;99.90;;;;;;5071792;28;20501;-46
2023/07/23 03:20:18;;;;;;;8.95;4.97;;;19.40;99.90;;;;;;5071766;28;20220;-47
2023/07/23 03:22:44;;;;;;;4.97;4.15;;;19.40;99.90;;;;;;5071779;28;20166;-46
2023/07/23 03:25:10;;;;;;;6.72;4.03;;;19.40;99.90;;;;;;5071513;28;20157;-47
2023/07/23 03:27:35;;;;;;;4.90;3.95;;;19.40;99.90;;;;;;5071410;28;20169;-47
2023/07/23 03:30:02;;;;;;;6.38;3.65;;;19.40;99.90;;;;;;5087940;28;20595;-47
2023/07/23 03:32:28;;;;;;;9.65;3.70;;;19.40;99.90;;;;;;5092468;28;20180;-47
2023/07/23 03:34:53;;;;;;;10.45;4.60;;;19.40;99.90;;;;;;5091740;28;20204;-46
2023/07/23 03:37:19;;;;;;;7.07;4.80;;;19.40;99.90;;;;;;5091420;28;20184;-47
2023/07/23 03:39:44;;;;;;;4.72;3.72;;;19.40;99.90;;;;;;5091668;28;20248;-47
2023/07/23 03:42:10;;;;;;;8.25;5.10;;;19.40;99.90;;;;;;5091709;28;20216;-46
2023/07/23 03:44:36;;;;;;;6.97;4.07;;;19.40;99.90;;;;;;5091716;28;20530;-47
2023/07/23 03:47:06;;;;;;;4.47;3.85;;;19.40;99.90;;;;;;5073620;28;20169;-47
2023/07/23 03:49:31;;;;;;;8.20;5.07;;;19.40;99.90;;;;;;5091617;28;20165;-47
2023/07/23 03:51:58;;;;;;;6.25;3.83;;;19.40;99.90;;;;;;5092226;28;20169;-46
2023/07/23 03:54:24;;;;;;;6.65;4.28;;;19.40;99.90;;;;;;5091731;28;20169;-47
2023/07/23 03:56:50;;;;;;;5.88;3.60;;;19.40;99.90;;;;;;5091759;28;20168;-47
2023/07/23 03:59:15;;;;;;;8.25;4.25;;;19.40;99.90;;;;;;5081544;28;20235;-46
2023/07/23 04:01:41;;;;;;;5.18;4.00;;;19.40;99.90;;;;;;5071622;28;20580;-46
2023/07/23 04:04:06;;;;;;;15.07;7.63;;;19.40;99.90;;;;;;5071208;28;20176;-49
2023/07/23 04:06:32;;;;;;;9.15;6.10;;;19.40;99.90;;;;;;5071409;28;20180;-47
2023/07/23 04:08:58;;;;;;;6.95;4.30;;;19.40;99.90;;;;;;5071747;28;20165;-46
2023/07/23 04:11:23;;;;;;;9.20;4.35;;;19.40;99.90;;;;;;5071252;28;20214;-46
2023/07/23 04:13:50;;;;;;;10.52;5.55;;;19.40;99.90;;;;;;5071287;28;20524;-47
2023/07/23 04:16:16;;;;;;;10.20;5.85;;;19.40;99.90;;;;;;5071362;28;20203;-46
2023/07/23 04:18:49;;;;;;;5.30;3.80;;;19.50;99.90;;;;;;5071271;28;20244;-48
2023/07/23 04:21:18;;;;;;;4.65;3.28;;;19.50;99.90;;;;;;5071111;28;20637;-47
2023/07/23 04:23:47;;;;;;;7.32;3.92;;;19.50;99.90;;;;;;5071239;28;20664;-47
2023/07/23 04:26:14;;;;;;;5.30;3.70;;;19.50;99.90;;;;;;5071098;28;20184;-47
2023/07/23 04:28:39;;;;;;;5.50;3.95;;;19.50;99.90;;;;;;5072213;28;20182;-47
2023/07/23 04:31:05;;;;;;;8.20;4.82;;;19.50;99.90;;;;;;5071058;28;20667;-46
2023/07/23 04:33:30;;;;;;;6.25;3.90;;;19.40;99.90;;;;;;5071439;28;20172;-47
2023/07/23 04:35:56;;;;;;;4.40;3.55;;;19.40;99.90;;;;;;5071203;28;20707;-46
2023/07/23 04:38:21;;;;;;;6.05;4.18;;;19.40;99.90;;;;;;5074852;28;20230;-46
2023/07/23 04:40:48;;;;;;;14.48;7.15;;;19.40;99.90;;;;;;5075052;28;20191;-46
2023/07/23 04:43:13;;;;;;;9.25;4.50;;;19.40;99.90;;;;;;5074804;28;20744;-46
2023/07/23 04:45:39;;;;;;;5.65;3.92;;;19.40;99.90;;;;;;5090855;28;20181;-47
2023/07/23 04:48:05;;;;;;;13.43;5.35;;;19.40;99.90;;;;;;5094651;28;20557;-46
2023/07/23 04:50:30;;;;;;;4.95;3.85;;;19.40;99.90;;;;;;5095649;28;20660;-47
2023/07/23 04:52:56;;;;;;;5.65;3.88;;;19.50;99.90;;;;;;5095272;28;20240;-46
2023/07/23 04:55:21;;;;;;;7.82;4.55;;;19.40;99.90;;;;;;5076538;28;20243;-46
2023/07/23 04:57:47;;;;;;;5.45;2.83;;;19.40;99.90;;;;;;5094781;28;20162;-46
2023/07/23 05:00:13;;;;;;;6.13;2.70;;;19.50;99.90;;;;;;5074795;28;20657;-47
2023/07/23 05:02:38;;;;;;;4.25;3.03;;;19.50;99.90;;;;;;5074519;28;20235;-47
2023/07/23 05:05:04;;;;;;;5.72;2.70;;;19.50;99.90;;;;;;5074364;28;20162;-46
2023/07/23 05:07:31;;;;;;;5.82;3.05;;;19.50;99.90;;;;;;5074744;28;20177;-47
2023/07/23 05:09:56;;;;;;;5.90;3.28;;;19.60;99.90;;;;;;5074630;28;20158;-48
2023/07/23 05:12:22;;;;;;;5.03;3.10;;;19.50;99.90;;;;;;5074129;28;20700;-46
2023/07/23 05:14:48;;;;;;;5.70;3.05;;;19.60;99.90;;;;;;5074204;28;20666;-46
2023/07/23 05:17:14;;;;;;;8.65;3.25;;;19.70;99.90;;;;;;5074041;28;20174;-47
2023/07/23 05:19:40;;;;;;;4.63;3.53;;;19.70;99.90;;;;;;5090986;28;20181;-46
2023/07/23 05:22:06;;;;;;;6.65;2.83;;;19.70;99.90;;;;;;5094578;28;20204;-48
2023/07/23 05:24:31;;;;;;;5.85;3.28;;;19.70;99.90;;;;;;5094310;28;20272;-46
2023/07/23 05:26:57;;;;;;;4.45;3.10;;;19.70;99.90;;;;;;5077671;28;20252;-47
2023/07/23 05:29:23;;;;;;;4.82;2.92;;;19.70;99.90;;;;;;5073854;28;20173;-46
2023/07/23 05:31:49;;;;;;;4.07;2.70;;;19.70;99.90;;;;;;5086239;28;20169;-46
2023/07/23 05:34:16;;;;;;;4.93;3.03;;;19.80;99.90;;;;;;5093929;28;20215;-46
2023/07/23 05:36:42;;;;;;;2.97;2.58;;;19.80;99.90;;;;;;5083588;28;20215;-46
2023/07/23 05:39:09;;;;;;;4.50;2.88;;;19.80;99.90;;;;;;5093888;28;20166;-46
2023/07/23 05:41:34;;;;;;;7.47;2.78;;;19.80;99.90;;;;;;5093799;28;20641;-46
2023/07/23 05:44:00;;;;;;;6.15;2.92;;;19.80;99.90;;;;;;5094224;28;20177;-46
2023/07/23 05:46:26;;;;;;;3.38;2.70;;;19.80;99.90;;;;;;5076480;28;20174;-46
2023/07/23 05:48:51;;;;;;;4.43;3.15;;;19.80;99.90;;;;;;5073412;28;20170;-47
2023/07/23 05:51:17;;;;;;;7.03;3.03;;;19.80;99.90;;;;;;5073524;28;20193;-46
2023/07/23 05:53:42;;;;;;;5.40;3.17;;;19.90;99.90;;;;;;5073597;28;20194;-46
2023/07/23 05:56:08;;;;;;;3.47;2.67;;;19.90;99.90;;;;;;5086808;28;20259;-48
2023/07/23 05:58:33;;;;;;;5.13;2.63;;;19.90;99.90;;;;;;5093267;28;20181;-46
2023/07/23 06:00:59;;;;;;;3.67;2.80;;;20.00;99.90;;;;;;5094068;28;20648;-46
2023/07/23 06:03:24;;;;;;;4.10;2.90;;;20.00;99.90;;;;;;5093556;28;20162;-46
2023/07/23 06:05:50;;;;;;;4.10;2.70;;;20.00;99.90;;;;;;5090802;28;20177;-46
2023/07/23 06:08:15;;;;;;;4.32;2.50;;;19.90;99.90;;;;;;5073225;28;20507;-46
2023/07/23 06:10:41;;;;;;;5.20;2.70;;;20.00;99.90;;;;;;5074153;28;20543;-47
2023/07/23 06:13:07;;;;;;;5.15;2.90;;;20.00;99.90;;;;;;5073226;28;20182;-46
2023/07/23 06:15:32;;;;;;;4.07;2.80;;;20.00;99.90;;;;;;5091912;28;20221;-46
2023/07/23 06:17:58;;;;;;;4.90;2.85;;;20.00;99.90;;;;;;5089670;28;20174;-46
2023/07/23 06:20:24;;;;;;;5.28;2.60;;;20.00;99.90;;;;;;5072875;28;20193;-47
2023/07/23 06:22:50;;;;;;;9.25;3.10;;;20.00;99.90;;;;;;5072853;28;20831;-46
2023/07/23 06:25:15;;;;;;;6.05;2.75;;;19.90;99.90;;;;;;5072881;28;20165;-46
2023/07/23 06:27:41;;;;;;;5.60;2.90;;;19.90;99.90;;;;;;5072890;28;20166;-49
2023/07/23 06:30:07;;;;;;;3.22;2.85;;;19.90;99.90;;;;;;5072791;28;20174;-46
2023/07/23 06:32:33;;;;;;;4.88;2.85;;;19.90;99.90;;;;;;5054804;28;20170;-46
2023/07/23 06:34:58;;;;;;;4.88;2.75;;;19.90;99.90;;;;;;5089770;28;20254;-46
2023/07/23 06:37:24;;;;;;;3.10;2.60;;;19.90;99.90;;;;;;5092800;28;20194;-46
2023/07/23 06:39:49;;;;;;;6.55;2.47;;;19.90;99.90;;;;;;5092834;28;20184;-46
2023/07/23 06:42:15;;;;;;;3.70;2.72;;;19.90;99.90;;;;;;5066982;28;20245;-46
2023/07/23 06:44:41;;;;;;;4.40;2.85;;;20.00;99.90;;;;;;5072486;28;20622;-46
2023/07/23 06:47:07;;;;;;;7.50;2.53;;;20.00;99.90;;;;;;5072580;28;20174;-48
2023/07/23 06:49:33;;;;;;;3.95;2.80;;;20.10;99.90;;;;;;5072334;28;20169;-46
2023/07/23 06:51:58;;;;;;;6.60;3.38;;;20.20;99.90;;;;;;5073040;28;20169;-46
2023/07/23 06:54:24;;;;;;;7.38;2.95;;;20.10;99.90;;;;;;5090874;28;20188;-47
2023/07/23 06:56:52;;;;;;;6.57;3.80;;;20.20;99.90;;;;;;5092459;28;20199;-46
2023/07/23 06:59:17;;;;;;;8.55;4.40;;;20.10;99.90;;;;;;5091809;28;20158;-46
2023/07/23 07:01:43;;;;;;;4.18;3.05;;;20.10;99.90;;;;;;5082580;28;20645;-46
2023/07/23 07:04:08;;;;;;;5.43;3.35;;;20.10;99.90;;;;;;5072097;28;20630;-46
2023/07/23 07:06:34;;;;;;;6.60;3.20;;;20.00;99.90;;;;;;5072380;28;20625;-47
2023/07/23 07:08:59;;;;;;;6.00;3.35;;;19.90;99.90;;;;;;5072416;28;20181;-46
2023/07/23 07:11:25;;;;;;;7.75;3.63;;;19.90;99.90;;;;;;5072184;28;20222;-46
2023/07/23 07:13:51;;;;;;;8.32;2.65;;;20.00;99.90;;;;;;5071811;28;20533;-48
2023/07/23 07:16:16;;;;;;;6.78;3.05;;;20.00;99.90;;;;;;5071777;28;20235;-47
2023/07/23 07:18:42;;;;;;;4.03;2.85;;;20.00;99.90;;;;;;5071869;28;20213;-46
2023/07/23 07:21:08;;;;;;;6.95;3.38;;;20.10;99.90;;;;;;5072044;28;20169;-46
2023/07/23 07:23:34;;;;;;;3.20;2.58;;;20.20;99.90;;;;;;5072104;28;20621;-46
2023/07/23 07:26:03;;;;;;;6.45;2.50;;;20.20;99.90;;;;;;5071723;28;20223;-46
2023/07/23 07:28:30;;;;;;;5.43;2.58;;;20.20;99.90;;;;;;5072374;28;20170;-46
2023/07/23 07:30:59;;;;;;;5.35;2.40;;;20.10;99.90;;;;;;5074783;28;20293;-46
2023/07/23 07:33:26;;;;;;;5.57;2.70;;;20.20;99.90;;;;;;5091979;28;20204;-46
2023/07/23 07:35:54;;;;;;;3.42;2.78;;;20.20;99.90;;;;;;5073719;28;20289;-46
2023/07/23 07:38:19;;;;;;;3.15;2.10;;;20.20;99.90;;;;;;5091711;28;20219;-47
2023/07/23 07:40:48;;;;;;;5.28;2.95;;;20.00;99.90;;;;;;5091767;28;20629;-46
2023/07/23 07:43:13;;;;;;;5.03;2.50;;;20.10;99.90;;;;;;5073706;28;20231;-47
2023/07/23 07:45:39;;;;;;;3.90;2.17;;;20.00;99.90;;;;;;5091819;28;20158;-47
2023/07/23 07:48:05;;;;;;;2.70;2.30;;;19.90;99.90;;;;;;5091780;28;20169;-47
2023/07/23 07:50:30;;;;;;;2.50;2.22;;;19.90;99.90;;;;;;5091908;28;20243;-46
2023/07/23 07:52:56;;;;;;;5.07;2.97;;;19.80;99.90;;;;;;5092041;28;20169;-46
2023/07/23 07:55:22;;;;;;;3.33;2.03;;;19.40;99.90;;;;;;5091594;28;20273;-47
2023/07/23 07:57:48;;;;;;;4.00;2.72;;;19.20;99.90;;;;;;5090512;28;20170;-50
2023/07/23 08:00:14;;;;;;;2.55;2.20;;;19.20;99.90;;;;;;5090390;28;20218;-53
2023/07/23 08:02:40;;;;;;;6.60;2.78;;;19.10;99.90;;;;;;5072520;28;20173;-50
2023/07/23 08:05:07;;;;;;;5.22;2.47;;;19.10;99.90;;;;;;5069888;28;20225;-48
2023/07/23 08:07:34;;;;;;;5.03;2.60;;;19.10;99.90;;;;;;5080027;28;20181;-51
2023/07/23 08:10:00;;;;;;;3.13;2.10;;;19.00;99.90;;;;;;5055083;28;20200;-47
2023/07/23 08:12:26;;;;;;;5.28;2.85;;;18.90;99.90;;;;;;5092932;28;20252;-52
2023/07/23 08:14:53;;;;;;;3.88;2.60;;;18.90;99.90;;;;;;5094081;28;20207;-48
2023/07/23 08:17:20;;;;;;;6.03;2.80;;;18.80;99.90;;;;;;5094400;28;20201;-53
2023/07/23 08:19:46;;;;;;;3.33;2.60;;;18.80;99.90;;;;;;5094181;28;20193;-52
2023/07/23 08:22:12;;;;;;;4.70;2.65;;;18.60;99.90;;;;;;5078317;28;20677;-52
2023/07/23 08:24:38;;;;;;;3.08;2.78;;;18.60;99.90;;;;;;5073582;28;20246;-51
2023/07/23 08:27:07;;;;;;;3.30;2.45;;;18.70;99.90;;;;;;5073641;28;20170;-51
2023/07/23 08:29:34;;;;;;;2.92;2.53;;;18.80;99.90;;;;;;5073723;28;20198;-52
2023/07/23 08:32:01;;;;;;;3.50;2.45;;;18.90;99.90;;;;;;5077932;28;20732;-52
2023/07/23 08:34:28;;;;;;;4.32;2.60;;;19.00;99.90;;;;;;5073891;28;20325;-49
2023/07/23 08:36:54;;;;;;;3.38;2.83;;;19.00;99.90;;;;;;5070201;28;20224;-49
2023/07/23 08:39:21;;;;;;;2.95;2.28;;;19.20;99.90;;;;;;5093260;28;20222;-49
2023/07/23 08:42:18;;;;;;;2.67;2.17;;;19.10;99.90;;;;;;5093830;28;20505;-51
2023/07/23 08:45:05;;;;;;;2.83;2.38;;;18.90;99.90;;;;;;5093468;28;20165;-53
2023/07/23 08:47:37;;;;;;;3.17;2.72;;;18.80;99.90;;;;;;5093524;28;20248;-51
2023/07/23 08:50:03;;;;;;;7.30;2.25;;;18.90;99.90;;;;;;5093420;28;20173;-54
2023/07/23 08:52:31;;;;;;;4.15;2.58;;;19.00;99.90;;;;;;5076186;28;20224;-52
2023/07/23 08:54:57;;;;;;;3.40;2.60;;;19.10;99.90;;;;;;5073506;28;20194;-47
2023/07/23 08:57:23;;;;;;;3.10;2.70;;;19.30;99.90;;;;;;5073177;28;20177;-50
2023/07/23 08:59:50;;;;;;;3.25;2.60;;;19.50;99.90;;;;;;5081270;28;20252;-47
2023/07/23 09:02:16;;;;;;;5.13;2.60;;;19.70;99.90;;;;;;5092819;28;20181;-48
2023/07/23 09:04:42;;;;;;;3.22;2.20;;;19.70;99.90;;;;;;5093471;28;20639;-50
2023/07/23 09:07:10;;;;;;;3.28;2.20;;;19.60;99.90;;;;;;5073459;28;20165;-48
2023/07/23 09:09:36;;;;;;;2.15;1.95;;;19.70;99.90;;;;;;5072684;28;20169;-48
2023/07/23 09:12:03;;;;;;;4.38;2.28;;;19.50;99.90;;;;;;5072781;28;20214;-51
2023/07/23 09:14:29;;;;;;;4.38;2.10;;;19.50;99.90;;;;;;5072768;28;20165;-51
2023/07/23 09:16:55;;;;;;;2.40;2.00;;;19.40;99.90;;;;;;5086493;28;20181;-49
2023/07/23 09:19:22;;;;;;;5.72;2.80;;;19.60;99.90;;;;;;5092889;28;20218;-49
2023/07/23 09:21:48;;;;;;;1.80;1.60;;;19.80;99.90;;;;;;5092479;28;20632;-53
2023/07/23 09:24:17;;;;;;;2.85;2.10;;;19.80;99.90;;;;;;5092775;28;20180;-50
2023/07/23 09:26:43;;;;;;;3.90;2.08;;;19.80;99.90;;;;;;5092646;28;20173;-53
2023/07/23 09:29:11;;;;;;;2.20;1.80;;;19.70;99.90;;;;;;5092682;28;20555;-52
2023/07/23 09:31:41;;;;;;;2.90;2.00;;;19.60;99.90;;;;;;5092813;28;20600;-48
2023/07/23 09:34:07;;;;;;;3.72;2.00;;;19.80;99.90;;;;;;5092491;28;20173;-52
2023/07/23 09:36:33;;;;;;;2.33;1.85;;;19.80;99.90;;;;;;5092495;28;20197;-53
2023/07/23 09:39:05;;;;;;;2.40;1.73;;;19.80;99.90;;;;;;5093215;28;20165;-51
2023/07/23 09:41:33;;;;;;;2.50;1.83;;;19.80;99.90;;;;;;5091807;28;20177;-52
2023/07/23 09:44:02;;;;;;;1.77;1.63;;;19.70;99.90;;;;;;5092389;28;20173;-52
2023/07/23 09:46:30;;;;;;;2.08;1.85;;;19.80;99.90;;;;;;5091585;28;20568;-49
2023/07/23 09:48:56;;;;;;;2.65;1.98;;;19.70;99.90;;;;;;5092693;28;20169;-53
2023/07/23 09:51:22;;;;;;;3.70;2.17;;;19.70;99.90;;;;;;5087920;28;20222;-53
2023/07/23 09:53:47;;;;;;;3.10;1.58;;;19.70;99.90;;;;;;5092483;28;20173;-53
2023/07/23 09:56:20;;;;;;;2.08;1.88;;;19.70;99.90;;;;;;5092630;28;20273;-51
2023/07/23 09:58:49;;;;;;;2.42;1.83;;;19.70;99.90;;;;;;5091969;28;20175;-53
2023/07/23 10:01:16;;;;;;;4.95;2.00;;;19.50;99.90;;;;;;5091876;28;20166;-50
2023/07/23 10:03:44;;;;;;;3.15;2.10;;;19.50;99.90;;;;;;5092323;28;20169;-51
2023/07/23 10:06:11;;;;;;;2.28;2.03;;;19.50;99.90;;;;;;5092413;28;20577;-50
2023/07/23 10:08:42;;;;;;;2.00;1.88;;;19.50;99.90;;;;;;5091935;28;20169;-48
2023/07/23 10:11:09;;;;;;;3.05;2.20;;;19.50;99.90;;;;;;5090756;28;20564;-48
2023/07/23 10:13:36;;;;;;;2.05;1.50;;;19.70;99.90;;;;;;5071135;28;20262;-48
2023/07/23 10:16:04;;;;;;;2.35;1.70;;;19.70;99.90;;;;;;5085224;28;20677;-49
2023/07/23 10:18:37;;;;;;;2.38;1.75;;;19.80;99.90;;;;;;5071836;28;20169;-51
2023/07/23 10:21:09;;;;;;;1.90;1.65;;;19.70;99.90;;;;;;5076595;28;20227;-53
2023/07/23 10:23:37;;;;;;;3.03;1.70;;;19.80;99.90;;;;;;5071138;28;20227;-52
2023/07/23 10:26:22;;;;;;;3.17;1.65;;;19.80;99.90;;;;;;5073582;28;20178;-53
2023/07/23 10:28:50;;;;;;;2.38;1.80;;;19.90;99.90;;;;;;5070980;28;20625;-53
2023/07/23 10:31:36;;;;;;;1.83;1.67;;;20.00;99.90;;;;;;5075380;28;20169;-54
2023/07/23 10:34:22;;;;;;;3.13;2.03;;;19.90;99.90;;;;;;5090312;28;20231;-53
2023/07/23 10:37:19;;;;;;;1.90;1.55;;;20.00;99.90;;;;;;5084820;28;20206;-52
2023/07/23 10:40:00;;;;;;;3.22;2.00;;;20.00;99.90;;;;;;5079266;28;20169;-53
2023/07/23 10:42:33;;;;;;;1.60;1.50;;;20.10;99.90;;;;;;5091476;28;20165;-53
2023/07/23 10:45:21;;;;;;;1.75;1.65;;;20.10;99.90;;;;;;5070728;28;20174;-50
2023/07/23 10:47:53;;;;;;;1.50;1.40;;;20.00;99.90;;;;;;5080883;28;20205;-50
2023/07/23 10:50:20;;;;;;;4.20;1.77;;;20.00;99.90;;;;;;5070627;28;20205;-52
2023/07/23 10:53:10;;;;;;;2.53;1.80;;;20.10;99.90;;;;;;5070541;28;20576;-51
2023/07/23 10:55:51;;;;;;;2.13;1.60;;;20.20;99.90;;;;;;5085407;28;20205;-53
2023/07/23 10:58:21;;;;;;;1.60;1.50;;;20.20;99.90;;;;;;5090752;28;20176;-52
2023/07/23 11:00:53;;;;;;;5.00;1.98;;;20.20;99.90;;;;;;5081520;28;20170;-50
2023/07/23 11:03:21;;;;;;;1.73;1.63;;;20.30;99.90;;;;;;5070417;28;20166;-52
2023/07/23 11:05:49;;;;;;;4.43;1.35;;;20.40;99.90;;;;;;5052366;28;20174;-48
2023/07/23 11:08:26;;;;;;;6.68;1.83;;;20.20;99.90;;;;;;5070048;28;20626;-48
2023/07/23 11:11:02;;;;;;;4.32;1.88;;;20.20;99.90;;;;;;5069965;28;20177;-48
2023/07/23 11:13:33;;;;;;;3.17;1.50;;;20.30;99.90;;;;;;5070220;28;20166;-49
2023/07/23 11:15:59;;;;;;;1.95;1.52;;;20.30;99.90;;;;;;5084825;28;20204;-49
2023/07/23 11:18:30;;;;;;;3.80;1.67;;;20.30;99.90;;;;;;5090900;28;20173;-49
2023/07/23 11:20:57;;;;;;;1.67;1.40;;;20.30;99.90;;;;;;5082689;28;20174;-51
2023/07/23 11:23:25;;;;;;;3.15;1.67;;;20.30;99.90;;;;;;5079420;28;20530;-50
2023/07/23 11:25:51;;;;;;;3.72;1.75;;;20.30;99.90;;;;;;5090276;28;20179;-50
2023/07/23 11:28:21;;;;;;;1.98;1.63;;;20.50;99.90;;;;;;5077044;28;20170;-50
2023/07/23 11:30:52;;;;;;;3.60;1.60;;;20.40;99.90;;;;;;5069959;28;20256;-51
2023/07/23 11:33:20;;;;;;;4.18;1.40;;;20.50;99.90;;;;;;5079126;28;20253;-48
2023/07/23 11:35:45;;;;;;;4.78;2.13;;;20.40;99.90;;;;;;5069873;28;20201;-49
2023/07/23 11:38:11;;;;;;;1.55;1.27;;;20.60;99.90;;;;;;5069572;28;20634;-49
2023/07/23 11:40:37;;;;;;;3.97;1.55;;;20.50;99.90;;;;;;5069969;28;20174;-49
2023/07/23 11:43:07;;;;;;;9.98;2.05;;;20.60;99.90;;;;;;5069999;28;20578;-48
2023/07/23 11:45:43;;;;;;;2.28;1.45;;;20.60;99.90;;;;;;5080754;28;20269;-49
2023/07/23 11:48:21;;;;;;;2.90;1.63;;;20.70;99.90;;;;;;5070361;28;20173;-49
2023/07/23 11:50:48;;;;;;;4.00;1.67;;;20.70;99.90;;;;;;5090113;28;20161;-48
2023/07/23 11:53:29;;;;;;;4.05;1.48;;;20.60;99.90;;;;;;5090169;28;20173;-48
2023/07/23 11:55:54;;;;;;;7.13;1.75;;;20.60;99.90;;;;;;5090427;28;20246;-49
2023/07/23 11:58:20;;;;;;;10.27;1.67;;;20.60;99.90;;;;;;5090282;28;20913;-49
2023/07/23 12:00:49;;;;;;;5.72;2.38;;;20.70;99.90;;;;;;5090037;28;20200;-48
2023/07/23 12:03:15;;;;;;;2.03;1.70;;;20.70;99.90;;;;;;5090067;28;20226;-48
2023/07/23 12:05:41;;;;;;;2.35;1.50;;;20.70;99.90;;;;;;5090111;28;20173;-48
2023/07/23 12:08:07;;;;;;;2.33;1.50;;;20.80;99.90;;;;;;5089927;28;20161;-48
2023/07/23 12:10:33;;;;;;;2.45;1.77;;;20.80;99.90;;;;;;5089977;28;20192;-49
2023/07/23 12:13:09;;;;;;;1.98;1.60;;;20.80;99.90;;;;;;5089543;28;20225;-50
2023/07/23 12:15:36;;;;;;;2.97;1.45;;;20.80;99.90;;;;;;5078099;28;20725;-48
2023/07/23 12:18:02;;;;;;;1.75;1.65;;;20.80;99.90;;;;;;5069536;28;20205;-48
2023/07/23 12:20:27;;;;;;;2.30;1.50;;;20.70;99.90;;;;;;5070024;28;20166;-48
2023/07/23 12:22:57;;;;;;;3.03;1.30;;;20.70;99.90;;;;;;5069908;28;20175;-48
2023/07/23 12:25:25;;;;;;;1.48;1.38;;;20.80;99.90;;;;;;5070119;28;20172;-49
2023/07/23 12:27:51;;;;;;;1.52;1.33;;;20.80;99.90;;;;;;5069354;28;20173;-48
2023/07/23 12:30:17;;;;;;;6.05;1.27;;;20.90;99.90;;;;;;5069550;28;20181;-48
2023/07/23 12:32:45;;;;;;;6.97;1.40;;;20.90;99.90;;;;;;5069394;28;20171;-48
2023/07/23 12:35:10;;;;;;;4.30;1.25;;;20.90;99.90;;;;;;5069452;28;20657;-48
2023/07/23 12:37:36;;;;;;;4.32;1.50;;;21.00;99.90;;;;;;5069445;28;20261;-48
2023/07/23 12:40:06;;;;;;;2.75;1.40;;;21.00;99.90;;;;;;5069055;28;20629;-48
2023/07/23 12:42:32;;;;;;;2.20;1.35;;;21.00;99.90;;;;;;5069796;28;20232;-48
2023/07/23 12:44:58;;;;;;;2.92;1.58;;;21.10;99.90;;;;;;5069810;28;20201;-49